EZY19WE LICJ-LIEO
Flight info
| Callsign | EZY19WE |
|---|---|
| Flight time | 0h 42m |
| Altitude | 34000 |
| Route | KAPIL DCT GISIG DCT BELOK DCT ALEDI DCT LABOM |
| Aircraft | A320/M-SDE3FGHIRWY/LB1 |
Departure
| Time | 2026-05-01 11:07 |
|---|---|
| Airport | Falcone–Borsellino Airport (LICJ) |
Arrival
| Time | 2026-05-01 11:50 |
|---|---|
| Airport | Olbia Costa Smeralda Airport (LIEO) |
| Time | Latitude | Longitude | Altitude | Speed | Heading |
|---|---|---|---|---|---|
| 2026-05-01 10:34 | 38.18531 | 13.10558 | 60 ft | 0 kts | 337° |
| 2026-05-01 10:56 | 38.18517 | 13.10565 | 57 ft | 4 kts | 340° |
| 2026-05-01 10:56 | 38.18492 | 13.10575 | 61 ft | 4 kts | 351° |
| 2026-05-01 10:57 | 38.18466 | 13.10575 | 59 ft | 4 kts | 25° |
| 2026-05-01 10:57 | 38.18454 | 13.10563 | 57 ft | 0 kts | 66° |
| 2026-05-01 10:59 | 38.18457 | 13.10571 | 59 ft | 2 kts | 66° |
| 2026-05-01 10:59 | 38.18465 | 13.10595 | 57 ft | 4 kts | 66° |
| 2026-05-01 10:59 | 38.18479 | 13.10636 | 58 ft | 4 kts | 67° |
| 2026-05-01 11:00 | 38.18491 | 13.10674 | 63 ft | 6 kts | 67° |
| 2026-05-01 11:00 | 38.18507 | 13.10729 | 65 ft | 7 kts | 83° |
| 2026-05-01 11:00 | 38.18491 | 13.10797 | 59 ft | 9 kts | 109° |
| 2026-05-01 11:00 | 38.18471 | 13.10879 | 63 ft | 10 kts | 100° |
| 2026-05-01 11:01 | 38.18423 | 13.10936 | 64 ft | 10 kts | 188° |
| 2026-05-01 11:01 | 38.18387 | 13.10883 | 62 ft | 7 kts | 247° |
| 2026-05-01 11:01 | 38.18367 | 13.10817 | 64 ft | 13 kts | 249° |
| 2026-05-01 11:01 | 38.18332 | 13.10706 | 61 ft | 13 kts | 246° |
| 2026-05-01 11:02 | 38.18298 | 13.10606 | 61 ft | 12 kts | 246° |
| 2026-05-01 11:02 | 38.18265 | 13.10512 | 64 ft | 11 kts | 246° |
| 2026-05-01 11:02 | 38.18236 | 13.10428 | 61 ft | 11 kts | 246° |
| 2026-05-01 11:02 | 38.18196 | 13.10310 | 62 ft | 15 kts | 247° |
| 2026-05-01 11:03 | 38.18156 | 13.10190 | 60 ft | 14 kts | 247° |
| 2026-05-01 11:03 | 38.18119 | 13.10080 | 60 ft | 13 kts | 247° |
| 2026-05-01 11:03 | 38.18086 | 13.09981 | 61 ft | 11 kts | 247° |
| 2026-05-01 11:03 | 38.18050 | 13.09870 | 61 ft | 21 kts | 247° |
| 2026-05-01 11:04 | 38.17990 | 13.09693 | 63 ft | 21 kts | 247° |
| 2026-05-01 11:04 | 38.17934 | 13.09530 | 63 ft | 19 kts | 245° |
| 2026-05-01 11:04 | 38.17884 | 13.09386 | 61 ft | 16 kts | 246° |
| 2026-05-01 11:04 | 38.17847 | 13.09276 | 72 ft | 11 kts | 248° |
| 2026-05-01 11:05 | 38.17812 | 13.09164 | 65 ft | 16 kts | 247° |
| 2026-05-01 11:05 | 38.17766 | 13.09025 | 59 ft | 17 kts | 247° |
| 2026-05-01 11:05 | 38.17699 | 13.08915 | 64 ft | 15 kts | 217° |
| 2026-05-01 11:05 | 38.17619 | 13.08839 | 67 ft | 13 kts | 217° |
| 2026-05-01 11:06 | 38.17551 | 13.08773 | 66 ft | 11 kts | 217° |
| 2026-05-01 11:06 | 38.17496 | 13.08767 | 68 ft | 6 kts | 139° |
| 2026-05-01 11:06 | 38.17489 | 13.08819 | 68 ft | 8 kts | 79° |
| 2026-05-01 11:07 | 38.17777 | 13.09673 | 69 ft | 113 kts | 67° |
| 2026-05-01 11:07 | 38.18155 | 13.10788 | 116 ft | 156 kts | 66° |
| 2026-05-01 11:07 | 38.18582 | 13.12074 | 638 ft | 159 kts | 66° |
| 2026-05-01 11:07 | 38.19015 | 13.13375 | 1220 ft | 160 kts | 66° |
| 2026-05-01 11:08 | 38.19462 | 13.14678 | 1711 ft | 166 kts | 66° |
| 2026-05-01 11:08 | 38.19930 | 13.16062 | 2104 ft | 172 kts | 65° |
| 2026-05-01 11:08 | 38.21440 | 13.18287 | 3136 ft | 176 kts | 18° |
| 2026-05-01 11:09 | 38.22663 | 13.18255 | 3723 ft | 181 kts | 343° |
| 2026-05-01 11:09 | 38.23841 | 13.17660 | 4356 ft | 181 kts | 340° |
| 2026-05-01 11:09 | 38.24996 | 13.17020 | 4992 ft | 183 kts | 331° |
| 2026-05-01 11:10 | 38.26130 | 13.14155 | 6152 ft | 194 kts | 283° |
| 2026-05-01 11:10 | 38.26288 | 13.12463 | 6773 ft | 192 kts | 281° |
| 2026-05-01 11:10 | 38.26449 | 13.10767 | 7313 ft | 195 kts | 281° |
| 2026-05-01 11:10 | 38.26623 | 13.08983 | 7626 ft | 214 kts | 280° |
| 2026-05-01 11:11 | 38.26819 | 13.07002 | 7897 ft | 237 kts | 280° |
| 2026-05-01 11:11 | 38.27036 | 13.04813 | 8213 ft | 261 kts | 280° |
| 2026-05-01 11:11 | 38.27263 | 13.02480 | 8764 ft | 274 kts | 280° |
| 2026-05-01 11:11 | 38.27496 | 13.00058 | 9563 ft | 278 kts | 280° |
| 2026-05-01 11:12 | 38.27734 | 12.97569 | 10321 ft | 285 kts | 280° |
| 2026-05-01 11:12 | 38.27983 | 12.94967 | 10560 ft | 308 kts | 280° |
| 2026-05-01 11:12 | 38.28246 | 12.92233 | 11047 ft | 319 kts | 280° |
| 2026-05-01 11:12 | 38.28514 | 12.89417 | 11766 ft | 322 kts | 280° |
| 2026-05-01 11:13 | 38.28783 | 12.86575 | 12574 ft | 324 kts | 280° |
| 2026-05-01 11:13 | 38.29055 | 12.83721 | 13365 ft | 325 kts | 280° |
| 2026-05-01 11:13 | 38.29327 | 12.80855 | 14129 ft | 327 kts | 280° |
| 2026-05-01 11:13 | 38.29599 | 12.77975 | 14809 ft | 329 kts | 280° |
| 2026-05-01 11:14 | 38.29872 | 12.75070 | 15457 ft | 331 kts | 280° |
| 2026-05-01 11:14 | 38.30147 | 12.72147 | 16108 ft | 334 kts | 280° |
| 2026-05-01 11:14 | 38.30423 | 12.69203 | 16773 ft | 336 kts | 280° |
| 2026-05-01 11:14 | 38.30701 | 12.66243 | 17409 ft | 338 kts | 280° |
| 2026-05-01 11:15 | 38.30980 | 12.63260 | 18055 ft | 340 kts | 280° |
| 2026-05-01 11:15 | 38.31259 | 12.60294 | 18654 ft | 343 kts | 279° |
| 2026-05-01 11:15 | 38.31541 | 12.57277 | 19214 ft | 345 kts | 279° |
| 2026-05-01 11:15 | 38.31822 | 12.54230 | 19789 ft | 346 kts | 279° |
| 2026-05-01 11:16 | 38.32103 | 12.51186 | 20361 ft | 348 kts | 279° |
| 2026-05-01 11:16 | 38.32387 | 12.48119 | 20948 ft | 349 kts | 279° |
| 2026-05-01 11:16 | 38.32675 | 12.45045 | 21511 ft | 351 kts | 279° |
| 2026-05-01 11:16 | 38.32965 | 12.41939 | 22086 ft | 353 kts | 279° |
| 2026-05-01 11:17 | 38.33253 | 12.38831 | 22608 ft | 356 kts | 279° |
| 2026-05-01 11:17 | 38.33541 | 12.35685 | 23129 ft | 358 kts | 279° |
| 2026-05-01 11:17 | 38.33829 | 12.32525 | 23666 ft | 360 kts | 279° |
| 2026-05-01 11:17 | 38.34116 | 12.29343 | 24119 ft | 362 kts | 279° |
| 2026-05-01 11:18 | 38.34402 | 12.26149 | 24498 ft | 366 kts | 279° |
| 2026-05-01 11:18 | 38.34695 | 12.22882 | 24608 ft | 376 kts | 279° |
| 2026-05-01 11:18 | 38.34997 | 12.19535 | 24726 ft | 385 kts | 279° |
| 2026-05-01 11:18 | 38.35380 | 12.16131 | 24852 ft | 391 kts | 284° |
| 2026-05-01 11:19 | 38.36301 | 12.12867 | 25053 ft | 394 kts | 298° |
| 2026-05-01 11:19 | 38.37838 | 12.09969 | 25335 ft | 397 kts | 305° |
| 2026-05-01 11:19 | 38.39492 | 12.07144 | 25648 ft | 398 kts | 306° |
| 2026-05-01 11:19 | 38.41163 | 12.04326 | 25960 ft | 399 kts | 306° |
| 2026-05-01 11:20 | 38.46161 | 11.95969 | 26750 ft | 405 kts | 306° |
| 2026-05-01 11:20 | 38.53029 | 11.84435 | 27842 ft | 409 kts | 305° |
| 2026-05-01 11:20 | 38.59899 | 11.72826 | 28723 ft | 411 kts | 305° |
| 2026-05-01 11:20 | 38.66791 | 11.61146 | 29548 ft | 412 kts | 305° |
| 2026-05-01 11:21 | 38.73666 | 11.49451 | 30568 ft | 408 kts | 304° |
| 2026-05-01 11:21 | 38.80439 | 11.37875 | 31498 ft | 404 kts | 304° |
| 2026-05-01 11:21 | 38.87117 | 11.26423 | 32392 ft | 401 kts | 304° |
| 2026-05-01 11:21 | 38.93802 | 11.14908 | 33192 ft | 401 kts | 304° |
| 2026-05-01 11:22 | 38.98785 | 11.06305 | 33872 ft | 398 kts | 304° |
| 2026-05-01 11:22 | 39.00437 | 11.03449 | 34097 ft | 398 kts | 304° |
| 2026-05-01 11:22 | 39.02087 | 11.00588 | 34210 ft | 399 kts | 304° |
| 2026-05-01 11:22 | 39.03748 | 10.97707 | 34221 ft | 402 kts | 304° |
| 2026-05-01 11:23 | 39.07078 | 10.91927 | 34244 ft | 408 kts | 304° |
| 2026-05-01 11:23 | 39.14497 | 10.79032 | 34239 ft | 410 kts | 304° |
| 2026-05-01 11:24 | 39.25621 | 10.59591 | 34262 ft | 400 kts | 304° |
| 2026-05-01 11:25 | 39.33668 | 10.45437 | 34244 ft | 405 kts | 304° |
| 2026-05-01 11:25 | 39.54197 | 10.10829 | 34204 ft | 407 kts | 305° |
| 2026-05-01 11:26 | 39.61402 | 9.99356 | 34291 ft | 411 kts | 316° |
| 2026-05-01 11:26 | 39.77385 | 9.87043 | 31360 ft | 433 kts | 326° |
| 2026-05-01 11:26 | 39.79065 | 9.85754 | 31114 ft | 413 kts | 326° |
| 2026-05-01 11:27 | 39.82521 | 9.83133 | 30142 ft | 389 kts | 327° |
| 2026-05-01 11:27 | 39.91494 | 9.76312 | 27237 ft | 353 kts | 328° |
| 2026-05-01 11:27 | 40.03090 | 9.67454 | 25043 ft | 356 kts | 329° |
| 2026-05-01 11:27 | 40.09042 | 9.62919 | 23210 ft | 375 kts | 330° |
| 2026-05-01 11:28 | 40.17536 | 9.56403 | 20976 ft | 316 kts | 330° |
| 2026-05-01 11:28 | 40.24841 | 9.50786 | 19918 ft | 302 kts | 330° |
| 2026-05-01 11:28 | 40.32056 | 9.45215 | 18941 ft | 300 kts | 331° |
| 2026-05-01 11:29 | 40.47764 | 9.44439 | 15624 ft | 306 kts | 15° |
| 2026-05-01 11:29 | 40.55768 | 9.47709 | 14196 ft | 300 kts | 15° |
| 2026-05-01 11:29 | 40.62217 | 9.53336 | 13159 ft | 291 kts | 51° |
| 2026-05-01 11:30 | 40.63335 | 9.55501 | 12820 ft | 290 kts | 51° |
| 2026-05-01 11:30 | 40.64485 | 9.57707 | 12635 ft | 282 kts | 51° |
| 2026-05-01 11:30 | 40.65563 | 9.59768 | 12507 ft | 272 kts | 50° |
| 2026-05-01 11:30 | 40.66626 | 9.61794 | 12289 ft | 266 kts | 50° |
| 2026-05-01 11:31 | 40.67715 | 9.63724 | 12084 ft | 260 kts | 40° |
| 2026-05-01 11:31 | 40.69168 | 9.65047 | 11844 ft | 253 kts | 19° |
| 2026-05-01 11:31 | 40.70865 | 9.65476 | 11594 ft | 248 kts | 357° |
| 2026-05-01 11:31 | 40.72523 | 9.64970 | 11347 ft | 246 kts | 336° |
| 2026-05-01 11:32 | 40.73901 | 9.63616 | 11106 ft | 253 kts | 314° |
| 2026-05-01 11:32 | 40.74770 | 9.61577 | 10864 ft | 262 kts | 290° |
| 2026-05-01 11:32 | 40.74941 | 9.59154 | 10619 ft | 269 kts | 271° |
| 2026-05-01 11:32 | 40.74845 | 9.56691 | 10378 ft | 269 kts | 272° |
| 2026-05-01 11:33 | 40.74748 | 9.54224 | 10184 ft | 268 kts | 271° |
| 2026-05-01 11:33 | 40.74624 | 9.51761 | 10040 ft | 271 kts | 266° |
| 2026-05-01 11:33 | 40.74117 | 9.49344 | 9920 ft | 277 kts | 250° |
| 2026-05-01 11:33 | 40.73149 | 9.47144 | 9780 ft | 279 kts | 238° |
| 2026-05-01 11:34 | 40.72029 | 9.45043 | 9635 ft | 282 kts | 240° |
| 2026-05-01 11:34 | 40.70907 | 9.42921 | 9495 ft | 282 kts | 240° |
| 2026-05-01 11:34 | 40.69791 | 9.40797 | 9360 ft | 283 kts | 240° |
| 2026-05-01 11:34 | 40.68675 | 9.38673 | 9222 ft | 280 kts | 238° |
| 2026-05-01 11:35 | 40.67561 | 9.36557 | 9095 ft | 279 kts | 238° |
| 2026-05-01 11:35 | 40.66468 | 9.34492 | 8958 ft | 270 kts | 239° |
| 2026-05-01 11:35 | 40.65396 | 9.32464 | 8829 ft | 270 kts | 238° |
| 2026-05-01 11:35 | 40.64320 | 9.30429 | 8703 ft | 277 kts | 239° |
| 2026-05-01 11:36 | 40.63211 | 9.28325 | 8574 ft | 282 kts | 239° |
| 2026-05-01 11:36 | 40.62092 | 9.26214 | 8446 ft | 281 kts | 239° |
| 2026-05-01 11:36 | 40.60977 | 9.24113 | 8324 ft | 278 kts | 238° |
| 2026-05-01 11:36 | 40.59883 | 9.22054 | 8179 ft | 278 kts | 238° |
| 2026-05-01 11:37 | 40.58772 | 9.19955 | 8054 ft | 277 kts | 238° |
| 2026-05-01 11:37 | 40.57695 | 9.17848 | 7931 ft | 276 kts | 247° |
| 2026-05-01 11:37 | 40.57184 | 9.15521 | 7790 ft | 258 kts | 272° |
| 2026-05-01 11:37 | 40.57452 | 9.13254 | 7676 ft | 248 kts | 297° |
| 2026-05-01 11:38 | 40.58364 | 9.11389 | 7553 ft | 240 kts | 322° |
| 2026-05-01 11:38 | 40.59668 | 9.10073 | 7433 ft | 236 kts | 329° |
| 2026-05-01 11:38 | 40.61008 | 9.08837 | 7291 ft | 233 kts | 330° |
| 2026-05-01 11:38 | 40.62338 | 9.07606 | 7162 ft | 232 kts | 330° |
| 2026-05-01 11:39 | 40.63708 | 9.06634 | 7025 ft | 216 kts | 351° |
| 2026-05-01 11:39 | 40.65133 | 9.06604 | 6922 ft | 200 kts | 17° |
| 2026-05-01 11:39 | 40.66334 | 9.07400 | 6801 ft | 192 kts | 41° |
| 2026-05-01 11:39 | 40.67158 | 9.08751 | 6711 ft | 187 kts | 54° |
| 2026-05-01 11:40 | 40.67877 | 9.10094 | 6598 ft | 173 kts | 52° |
| 2026-05-01 11:40 | 40.68548 | 9.11336 | 6451 ft | 160 kts | 53° |
| 2026-05-01 11:40 | 40.69169 | 9.12498 | 6324 ft | 151 kts | 53° |
| 2026-05-01 11:40 | 40.69774 | 9.13633 | 6197 ft | 152 kts | 52° |
| 2026-05-01 11:41 | 40.70376 | 9.14767 | 6073 ft | 150 kts | 52° |
| 2026-05-01 11:41 | 40.70977 | 9.15901 | 5957 ft | 151 kts | 53° |
| 2026-05-01 11:41 | 40.71578 | 9.17035 | 5812 ft | 151 kts | 53° |
| 2026-05-01 11:41 | 40.72169 | 9.18152 | 5693 ft | 149 kts | 53° |
| 2026-05-01 11:42 | 40.72767 | 9.19280 | 5571 ft | 148 kts | 53° |
| 2026-05-01 11:42 | 40.73346 | 9.20375 | 5440 ft | 140 kts | 54° |
| 2026-05-01 11:42 | 40.73887 | 9.21399 | 5301 ft | 133 kts | 54° |
| 2026-05-01 11:42 | 40.74414 | 9.22395 | 5190 ft | 135 kts | 54° |
| 2026-05-01 11:43 | 40.74947 | 9.23402 | 5079 ft | 134 kts | 54° |
| 2026-05-01 11:43 | 40.75477 | 9.24406 | 4962 ft | 132 kts | 53° |
| 2026-05-01 11:43 | 40.76002 | 9.25400 | 4824 ft | 133 kts | 53° |
| 2026-05-01 11:44 | 40.77061 | 9.27405 | 4553 ft | 133 kts | 53° |
| 2026-05-01 11:44 | 40.77586 | 9.28400 | 4432 ft | 132 kts | 54° |
| 2026-05-01 11:44 | 40.78104 | 9.29381 | 4319 ft | 127 kts | 54° |
| 2026-05-01 11:44 | 40.78626 | 9.30370 | 4255 ft | 134 kts | 53° |
| 2026-05-01 11:45 | 40.79150 | 9.31364 | 4057 ft | 134 kts | 53° |
| 2026-05-01 11:45 | 40.79692 | 9.32393 | 3903 ft | 135 kts | 52° |
| 2026-05-01 11:45 | 40.80219 | 9.33394 | 3718 ft | 134 kts | 54° |
| 2026-05-01 11:45 | 40.80744 | 9.34391 | 3502 ft | 131 kts | 55° |
| 2026-05-01 11:46 | 40.81259 | 9.35367 | 3317 ft | 129 kts | 54° |
| 2026-05-01 11:46 | 40.81772 | 9.36342 | 3114 ft | 129 kts | 55° |
| 2026-05-01 11:46 | 40.82287 | 9.37322 | 2901 ft | 129 kts | 54° |
| 2026-05-01 11:46 | 40.82797 | 9.38291 | 2716 ft | 128 kts | 54° |
| 2026-05-01 11:47 | 40.83293 | 9.39235 | 2509 ft | 125 kts | 56° |
| 2026-05-01 11:47 | 40.83797 | 9.40194 | 2311 ft | 128 kts | 54° |
| 2026-05-01 11:47 | 40.84314 | 9.41177 | 2105 ft | 132 kts | 53° |
| 2026-05-01 11:47 | 40.84830 | 9.42158 | 1897 ft | 132 kts | 53° |
| 2026-05-01 11:48 | 40.85368 | 9.43184 | 1688 ft | 136 kts | 53° |
| 2026-05-01 11:48 | 40.85894 | 9.44186 | 1462 ft | 135 kts | 52° |
| 2026-05-01 11:48 | 40.86444 | 9.45233 | 1266 ft | 140 kts | 52° |
| 2026-05-01 11:48 | 40.86994 | 9.46280 | 1037 ft | 137 kts | 53° |
| 2026-05-01 11:49 | 40.87518 | 9.47304 | 796 ft | 136 kts | 54° |
| 2026-05-01 11:49 | 40.88031 | 9.48335 | 606 ft | 131 kts | 50° |
| 2026-05-01 11:49 | 40.88571 | 9.49303 | 331 ft | 132 kts | 50° |
| 2026-05-01 11:49 | 40.89098 | 9.50287 | 160 ft | 134 kts | 53° |
| 2026-05-01 11:50 | 40.89609 | 9.51294 | 49 ft | 126 kts | 51° |
| 2026-05-01 11:50 | 40.90059 | 9.52136 | 38 ft | 94 kts | 54° |
| 2026-05-01 11:50 | 40.90283 | 9.52566 | 34 ft | 25 kts | 55° |
| 2026-05-01 11:50 | 40.90357 | 9.52683 | 34 ft | 12 kts | 29° |
| 2026-05-01 11:51 | 40.90435 | 9.52670 | 33 ft | 13 kts | 313° |
| 2026-05-01 11:51 | 40.90456 | 9.52556 | 34 ft | 12 kts | 276° |
| 2026-05-01 11:51 | 40.90438 | 9.52455 | 34 ft | 11 kts | 245° |
| 2026-05-01 11:51 | 40.90399 | 9.52374 | 34 ft | 10 kts | 235° |
| 2026-05-01 11:52 | 40.90357 | 9.52306 | 34 ft | 11 kts | 231° |
| 2026-05-01 11:52 | 40.90291 | 9.52182 | 34 ft | 17 kts | 237° |
| 2026-05-01 11:52 | 40.90227 | 9.52059 | 34 ft | 16 kts | 235° |
| 2026-05-01 11:52 | 40.90176 | 9.51943 | 34 ft | 14 kts | 259° |
| 2026-05-01 11:53 | 40.90193 | 9.51825 | 34 ft | 12 kts | 296° |
| 2026-05-01 11:53 | 40.90212 | 9.51750 | 34 ft | 8 kts | 242° |
| 2026-05-01 11:53 | 40.90212 | 9.51700 | 34 ft | 5 kts | 300° |
| 2026-05-01 11:53 | 40.90228 | 9.51679 | 33 ft | 0 kts | 326° |
| 2026-05-01 11:54 | 40.90242 | 9.51666 | 34 ft | 0 kts | 326° |
| 2026-05-01 11:54 | 40.90247 | 9.51661 | 34 ft | 1 kts | 326° |
| 2026-05-01 11:54 | 40.90248 | 9.51660 | 34 ft | 0 kts | 326° |